Terminal Aerodrome Forecast
Issued by NWS

Home | Current Version | Previous Version | Text Only | Print | Product List | Glossary On
Versions: 1 2 3 4 5 6 7 8 9 10 11 12
000
FTUS46 KSEW 071144
TAFPAE
TAF
KPAE 071144Z 0712/0812 17004KT P6SM FEW011 BKN200
     FM071400 17009KT P6SM OVC011
     FM071800 27006KT P6SM BKN200
     FM080000 33005KT P6SM OVC130=

USA.gov is the U.S. government's official web portal to all federal, state and local government web resources and services.